sensor_id;sensor_type;location;lat;lon;timestamp;pressure;altitude;pressure_sealevel;temperature;humidity
54329;BME280;40710;51.120;13.136;2022-11-02T00:01:17;99832.75;;;13.78;67.59
54329;BME280;40710;51.120;13.136;2022-11-02T00:03:43;99837.13;;;13.64;68.50
54329;BME280;40710;51.120;13.136;2022-11-02T00:06:07;99830.84;;;13.80;67.63
54329;BME280;40710;51.120;13.136;2022-11-02T00:08:32;99832.25;;;13.72;67.47
54329;BME280;40710;51.120;13.136;2022-11-02T00:10:57;99830.72;;;13.98;67.12
54329;BME280;40710;51.120;13.136;2022-11-02T00:13:21;99823.09;;;14.08;65.33
54329;BME280;40710;51.120;13.136;2022-11-02T00:15:46;99830.81;;;13.66;67.08
54329;BME280;40710;51.120;13.136;2022-11-02T00:18:13;99826.94;;;14.02;66.34
54329;BME280;40710;51.120;13.136;2022-11-02T00:20:40;99827.50;;;14.22;65.46
54329;BME280;40710;51.120;13.136;2022-11-02T00:23:06;99832.94;;;13.90;65.58
54329;BME280;40710;51.120;13.136;2022-11-02T00:25:38;99828.66;;;14.32;64.62
54329;BME280;40710;51.120;13.136;2022-11-02T00:28:04;99831.56;;;14.13;64.93
54329;BME280;40710;51.120;13.136;2022-11-02T00:30:28;99819.69;;;14.49;63.68
54329;BME280;40710;51.120;13.136;2022-11-02T00:32:53;99821.69;;;14.60;63.17
54329;BME280;40710;51.120;13.136;2022-11-02T00:35:18;99834.84;;;13.88;66.08
54329;BME280;40710;51.120;13.136;2022-11-02T00:37:43;99825.25;;;14.30;64.45
54329;BME280;40710;51.120;13.136;2022-11-02T00:40:07;99852.41;;;13.42;66.84
54329;BME280;40710;51.120;13.136;2022-11-02T00:42:32;99844.69;;;13.70;66.26
54329;BME280;40710;51.120;13.136;2022-11-02T00:44:57;99831.13;;;14.21;64.75
54329;BME280;40710;51.120;13.136;2022-11-02T00:47:21;99844.22;;;13.77;66.44
54329;BME280;40710;51.120;13.136;2022-11-02T00:49:46;99834.50;;;14.08;64.91
54329;BME280;40710;51.120;13.136;2022-11-02T00:52:10;99843.44;;;13.61;65.63
54329;BME280;40710;51.120;13.136;2022-11-02T00:54:35;99841.97;;;13.71;65.46
54329;BME280;40710;51.120;13.136;2022-11-02T00:57:00;99845.31;;;13.59;66.13
54329;BME280;40710;51.120;13.136;2022-11-02T00:59:24;99824.31;;;14.31;63.89
54329;BME280;40710;51.120;13.136;2022-11-02T01:01:49;99839.75;;;13.33;66.29
54329;BME280;40710;51.120;13.136;2022-11-02T01:04:14;99850.13;;;13.04;67.94
54329;BME280;40710;51.120;13.136;2022-11-02T01:06:40;99834.84;;;13.88;65.40
54329;BME280;40710;51.120;13.136;2022-11-02T01:09:05;99828.91;;;14.13;63.79
54329;BME280;40710;51.120;13.136;2022-11-02T01:11:29;99843.75;;;13.71;64.78
54329;BME280;40710;51.120;13.136;2022-11-02T01:13:54;99841.75;;;13.28;66.48
54329;BME280;40710;51.120;13.136;2022-11-02T01:16:19;99850.88;;;13.22;66.70
54329;BME280;40710;51.120;13.136;2022-11-02T01:18:44;99858.88;;;13.21;67.16
54329;BME280;40710;51.120;13.136;2022-11-02T01:21:09;99841.22;;;13.69;65.14
54329;BME280;40710;51.120;13.136;2022-11-02T01:23:35;99833.44;;;13.36;65.82
54329;BME280;40710;51.120;13.136;2022-11-02T01:26:05;99841.66;;;13.61;65.91
54329;BME280;40710;51.120;13.136;2022-11-02T01:28:31;99834.63;;;13.76;64.14
54329;BME280;40710;51.120;13.136;2022-11-02T01:30:55;99827.09;;;13.54;64.88
54329;BME280;40710;51.120;13.136;2022-11-02T01:33:22;99831.59;;;13.83;64.51
54329;BME280;40710;51.120;13.136;2022-11-02T01:35:46;99831.91;;;13.78;63.88
54329;BME280;40710;51.120;13.136;2022-11-02T01:38:11;99836.28;;;13.63;64.54
54329;BME280;40710;51.120;13.136;2022-11-02T01:40:39;99832.72;;;13.64;64.91
54329;BME280;40710;51.120;13.136;2022-11-02T01:43:23;99838.91;;;13.33;65.32
54329;BME280;40710;51.120;13.136;2022-11-02T01:45:57;99842.97;;;13.38;65.27
54329;BME280;40710;51.120;13.136;2022-11-02T01:48:40;99839.75;;;13.33;65.55
54329;BME280;40710;51.120;13.136;2022-11-02T01:51:10;99832.16;;;13.27;65.60
54329;BME280;40710;51.120;13.136;2022-11-02T01:53:41;99840.50;;;13.35;65.91
54329;BME280;40710;51.120;13.136;2022-11-02T01:56:11;99838.72;;;13.36;65.45
54329;BME280;40710;51.120;13.136;2022-11-02T01:58:37;99840.50;;;13.19;65.59
54329;BME280;40710;51.120;13.136;2022-11-02T02:01:01;99831.13;;;13.30;65.44
54329;BME280;40710;51.120;13.136;2022-11-02T02:03:30;99829.19;;;13.33;65.27
54329;BME280;40710;51.120;13.136;2022-11-02T02:06:00;99829.59;;;13.26;65.24
54329;BME280;40710;51.120;13.136;2022-11-02T02:08:27;99830.34;;;13.28;65.06
54329;BME280;40710;51.120;13.136;2022-11-02T02:10:56;99838.03;;;12.84;66.26
54329;BME280;40710;51.120;13.136;2022-11-02T02:13:23;99841.03;;;12.94;66.12
54329;BME280;40710;51.120;13.136;2022-11-02T02:18:39;99835.22;;;12.88;66.24
54329;BME280;40710;51.120;13.136;2022-11-02T02:27:08;99835.97;;;13.05;65.97
54329;BME280;40710;51.120;13.136;2022-11-02T02:34:58;99832.50;;;12.73;66.27
54329;BME280;40710;51.120;13.136;2022-11-02T02:37:32;99830.28;;;12.81;65.87
54329;BME280;40710;51.120;13.136;2022-11-02T02:40:06;99830.88;;;12.86;65.65
54329;BME280;40710;51.120;13.136;2022-11-02T02:42:53;99824.06;;;12.66;66.19
54329;BME280;40710;51.120;13.136;2022-11-02T02:45:35;99833.84;;;12.64;66.10
54329;BME280;40710;51.120;13.136;2022-11-02T02:48:10;99826.94;;;12.62;66.11
54329;BME280;40710;51.120;13.136;2022-11-02T02:50:42;99832.47;;;12.57;66.48
54329;BME280;40710;51.120;13.136;2022-11-02T02:53:12;99823.00;;;12.53;66.05
54329;BME280;40710;51.120;13.136;2022-11-02T02:55:43;99823.66;;;12.41;66.68
54329;BME280;40710;51.120;13.136;2022-11-02T02:58:16;99827.00;;;12.44;66.75
54329;BME280;40710;51.120;13.136;2022-11-02T03:00:43;99825.84;;;12.17;67.12
54329;BME280;40710;51.120;13.136;2022-11-02T03:03:16;99820.91;;;12.60;65.88
54329;BME280;40710;51.120;13.136;2022-11-02T03:05:41;99817.03;;;12.34;65.77
54329;BME280;40710;51.120;13.136;2022-11-02T03:08:11;99824.66;;;12.22;66.64
54329;BME280;40710;51.120;13.136;2022-11-02T03:10:45;99823.56;;;11.74;68.00
54329;BME280;40710;51.120;13.136;2022-11-02T03:13:33;99817.03;;;12.34;66.43
54329;BME280;40710;51.120;13.136;2022-11-02T03:16:06;99816.53;;;11.92;67.36
54329;BME280;40710;51.120;13.136;2022-11-02T03:21:42;99815.84;;;12.06;66.25
54329;BME280;40710;51.120;13.136;2022-11-02T03:24:35;99819.41;;;12.22;65.86
54329;BME280;40710;51.120;13.136;2022-11-02T03:27:20;99816.63;;;12.08;65.88
54329;BME280;40710;51.120;13.136;2022-11-02T03:30:16;99823.53;;;11.93;65.76
54329;BME280;40710;51.120;13.136;2022-11-02T03:33:05;99828.38;;;12.18;65.89
54329;BME280;40710;51.120;13.136;2022-11-02T03:35:40;99832.66;;;12.21;65.76
54329;BME280;40710;51.120;13.136;2022-11-02T03:38:15;99826.84;;;12.14;66.08
54329;BME280;40710;51.120;13.136;2022-11-02T03:40:45;99824.31;;;11.95;66.17
54329;BME280;40710;51.120;13.136;2022-11-02T03:43:13;99827.38;;;12.21;65.36
54329;BME280;40710;51.120;13.136;2022-11-02T03:45:43;99820.88;;;12.44;65.21
54329;BME280;40710;51.120;13.136;2022-11-02T03:48:13;99818.22;;;12.28;65.44
54329;BME280;40710;51.120;13.136;2022-11-02T03:50:45;99821.31;;;12.36;65.00
54329;BME280;40710;51.120;13.136;2022-11-02T03:53:20;99823.44;;;12.12;66.23
54329;BME280;40710;51.120;13.136;2022-11-02T03:55:57;99826.75;;;12.49;65.33
54329;BME280;40710;51.120;13.136;2022-11-02T03:58:22;99819.44;;;12.54;65.23
54329;BME280;40710;51.120;13.136;2022-11-02T04:00:53;99812.81;;;12.47;65.31
54329;BME280;40710;51.120;13.136;2022-11-02T04:03:22;99813.31;;;12.38;65.14
54329;BME280;40710;51.120;13.136;2022-11-02T04:05:47;99805.97;;;12.92;63.62
54329;BME280;40710;51.120;13.136;2022-11-02T04:08:16;99813.50;;;12.66;64.15
54329;BME280;40710;51.120;13.136;2022-11-02T04:10:45;99815.78;;;12.57;64.20
54329;BME280;40710;51.120;13.136;2022-11-02T04:13:29;99820.44;;;12.36;65.23
54329;BME280;40710;51.120;13.136;2022-11-02T04:16:14;99818.78;;;12.51;64.93
54329;BME280;40710;51.120;13.136;2022-11-02T04:18:39;99821.47;;;12.49;64.69
54329;BME280;40710;51.120;13.136;2022-11-02T04:21:22;99819.81;;;12.30;65.69
54329;BME280;40710;51.120;13.136;2022-11-02T04:23:46;99815.94;;;12.38;65.25
54329;BME280;40710;51.120;13.136;2022-11-02T04:26:29;99809.22;;;12.48;65.30
54329;BME280;40710;51.120;13.136;2022-11-02T04:28:54;99810.53;;;12.23;65.43
54329;BME280;40710;51.120;13.136;2022-11-02T04:31:18;99819.53;;;12.53;64.90
54329;BME280;40710;51.120;13.136;2022-11-02T04:33:43;99820.00;;;12.77;65.45
54329;BME280;40710;51.120;13.136;2022-11-02T04:36:08;99816.22;;;12.65;64.42
54329;BME280;40710;51.120;13.136;2022-11-02T04:38:32;99816.66;;;12.73;64.11
54329;BME280;40710;51.120;13.136;2022-11-02T04:41:12;99815.75;;;13.06;63.35
54329;BME280;40710;51.120;13.136;2022-11-02T04:43:56;99810.78;;;12.68;63.49
54329;BME280;40710;51.120;13.136;2022-11-02T04:46:22;99810.63;;;12.87;63.41
54329;BME280;40710;51.120;13.136;2022-11-02T04:48:47;99815.09;;;12.53;63.51
54329;BME280;40710;51.120;13.136;2022-11-02T04:51:12;99819.75;;;12.32;64.53
54329;BME280;40710;51.120;13.136;2022-11-02T04:53:37;99810.03;;;12.82;63.49
54329;BME280;40710;51.120;13.136;2022-11-02T04:56:02;99812.16;;;12.91;63.03
54329;BME280;40710;51.120;13.136;2022-11-02T04:58:26;99802.88;;;12.52;63.62
54329;BME280;40710;51.120;13.136;2022-11-02T05:00:51;99802.09;;;12.34;63.95
54329;BME280;40710;51.120;13.136;2022-11-02T05:03:15;99800.56;;;12.46;63.49
54329;BME280;40710;51.120;13.136;2022-11-02T05:05:40;99802.94;;;12.35;64.14
54329;BME280;40710;51.120;13.136;2022-11-02T05:08:05;99801.56;;;12.27;64.35
54329;BME280;40710;51.120;13.136;2022-11-02T05:10:29;99793.75;;;12.42;63.64
54329;BME280;40710;51.120;13.136;2022-11-02T05:12:58;99804.88;;;11.98;64.72
54329;BME280;40710;51.120;13.136;2022-11-02T05:15:23;99802.13;;;12.17;64.37
54329;BME280;40710;51.120;13.136;2022-11-02T05:17:47;99800.34;;;12.17;64.37
54329;BME280;40710;51.120;13.136;2022-11-02T05:20:12;99798.63;;;11.81;65.24
54329;BME280;40710;51.120;13.136;2022-11-02T05:22:40;99792.50;;;12.49;63.80
54329;BME280;40710;51.120;13.136;2022-11-02T05:25:05;99806.03;;;12.59;63.74
54329;BME280;40710;51.120;13.136;2022-11-02T05:27:30;99797.06;;;12.29;63.32
54329;BME280;40710;51.120;13.136;2022-11-02T05:29:55;99803.63;;;12.05;64.61
54329;BME280;40710;51.120;13.136;2022-11-02T05:32:19;99794.53;;;12.10;64.53
54329;BME280;40710;51.120;13.136;2022-11-02T05:34:44;99806.00;;;12.09;65.15
54329;BME280;40710;51.120;13.136;2022-11-02T05:37:08;99792.38;;;12.35;64.45
54329;BME280;40710;51.120;13.136;2022-11-02T05:39:33;99798.28;;;12.06;64.71
54329;BME280;40710;51.120;13.136;2022-11-02T05:41:59;99793.56;;;12.29;64.17
54329;BME280;40710;51.120;13.136;2022-11-02T05:44:24;99787.19;;;12.33;63.84
54329;BME280;40710;51.120;13.136;2022-11-02T05:46:49;99804.91;;;12.14;64.35
54329;BME280;40710;51.120;13.136;2022-11-02T05:49:14;99788.13;;;12.48;63.69
54329;BME280;40710;51.120;13.136;2022-11-02T05:51:39;99798.25;;;12.40;63.82
54329;BME280;40710;51.120;13.136;2022-11-02T05:54:03;99793.59;;;12.45;63.58
54329;BME280;40710;51.120;13.136;2022-11-02T05:56:28;99802.03;;;12.67;63.42
54329;BME280;40710;51.120;13.136;2022-11-02T05:58:53;99800.69;;;12.27;63.96
54329;BME280;40710;51.120;13.136;2022-11-02T06:01:18;99805.84;;;12.62;63.28
54329;BME280;40710;51.120;13.136;2022-11-02T06:03:43;99798.38;;;12.54;62.90
54329;BME280;40710;51.120;13.136;2022-11-02T06:06:09;99793.25;;;12.67;63.10
54329;BME280;40710;51.120;13.136;2022-11-02T06:08:35;99786.72;;;12.74;62.43
54329;BME280;40710;51.120;13.136;2022-11-02T06:11:10;99791.13;;;12.58;62.66
54329;BME280;40710;51.120;13.136;2022-11-02T06:13:35;99797.00;;;12.63;63.23
54329;BME280;40710;51.120;13.136;2022-11-02T06:16:01;99799.22;;;12.71;62.71
54329;BME280;40710;51.120;13.136;2022-11-02T06:18:27;99791.06;;;12.91;62.17
54329;BME280;40710;51.120;13.136;2022-11-02T06:20:52;99790.06;;;12.28;63.77
54329;BME280;40710;51.120;13.136;2022-11-02T06:23:16;99790.97;;;12.61;62.69
54329;BME280;40710;51.120;13.136;2022-11-02T06:25:41;99791.28;;;13.02;62.05
54329;BME280;40710;51.120;13.136;2022-11-02T06:28:06;99789.84;;;12.97;61.96
54329;BME280;40710;51.120;13.136;2022-11-02T06:30:30;99786.28;;;13.14;61.49
54329;BME280;40710;51.120;13.136;2022-11-02T06:32:55;99781.25;;;13.09;61.74
54329;BME280;40710;51.120;13.136;2022-11-02T06:35:21;99782.19;;;13.08;61.37
54329;BME280;40710;51.120;13.136;2022-11-02T06:37:46;99785.44;;;12.97;61.64
54329;BME280;40710;51.120;13.136;2022-11-02T06:40:12;99776.13;;;13.38;60.83
54329;BME280;40710;51.120;13.136;2022-11-02T06:42:37;99790.91;;;12.78;62.83
54329;BME280;40710;51.120;13.136;2022-11-02T06:45:02;99783.81;;;12.95;62.12
54329;BME280;40710;51.120;13.136;2022-11-02T06:47:31;99770.41;;;13.46;60.57
54329;BME280;40710;51.120;13.136;2022-11-02T06:49:57;99789.53;;;12.87;62.43
54329;BME280;40710;51.120;13.136;2022-11-02T06:52:22;99788.75;;;13.63;61.03
54329;BME280;40710;51.120;13.136;2022-11-02T06:54:46;99802.13;;;12.98;62.81
54329;BME280;40710;51.120;13.136;2022-11-02T06:57:11;99784.34;;;13.48;60.61
54329;BME280;40710;51.120;13.136;2022-11-02T06:59:35;99801.31;;;13.43;61.66
54329;BME280;40710;51.120;13.136;2022-11-02T07:02:00;99802.91;;;13.30;61.78
54329;BME280;40710;51.120;13.136;2022-11-02T07:04:25;99801.75;;;13.04;62.12
54329;BME280;40710;51.120;13.136;2022-11-02T07:06:49;99818.56;;;12.87;62.77
54329;BME280;40710;51.120;13.136;2022-11-02T07:09:14;99811.63;;;13.32;61.39
54329;BME280;40710;51.120;13.136;2022-11-02T07:11:38;99811.03;;;13.11;62.09
54329;BME280;40710;51.120;13.136;2022-11-02T07:14:03;99809.75;;;13.95;60.37
54329;BME280;40710;51.120;13.136;2022-11-02T07:16:29;99819.38;;;13.82;60.46
54329;BME280;40710;51.120;13.136;2022-11-02T07:18:54;99799.19;;;15.36;56.50
54329;BME280;40710;51.120;13.136;2022-11-02T07:21:19;99802.50;;;15.12;56.14
54329;BME280;40710;51.120;13.136;2022-11-02T07:23:44;99811.19;;;15.41;56.53
54329;BME280;40710;51.120;13.136;2022-11-02T07:26:08;99803.59;;;16.15;53.80
54329;BME280;40710;51.120;13.136;2022-11-02T07:28:33;99804.44;;;16.16;53.76
54329;BME280;40710;51.120;13.136;2022-11-02T07:31:00;99811.47;;;15.37;56.10
54329;BME280;40710;51.120;13.136;2022-11-02T07:33:24;99808.97;;;15.75;54.62
54329;BME280;40710;51.120;13.136;2022-11-02T07:35:49;99801.84;;;16.66;52.82
54329;BME280;40710;51.120;13.136;2022-11-02T07:38:13;99812.50;;;16.01;53.57
54329;BME280;40710;51.120;13.136;2022-11-02T07:40:38;99809.03;;;15.74;54.40
54329;BME280;40710;51.120;13.136;2022-11-02T07:43:04;99809.28;;;16.60;52.77
54329;BME280;40710;51.120;13.136;2022-11-02T07:45:29;99822.66;;;16.07;53.28
54329;BME280;40710;51.120;13.136;2022-11-02T07:47:54;99813.50;;;16.63;52.03
54329;BME280;40710;51.120;13.136;2022-11-02T07:50:21;99815.84;;;17.53;50.68
54329;BME280;40710;51.120;13.136;2022-11-02T07:52:49;99798.50;;;17.95;49.44
54329;BME280;40710;51.120;13.136;2022-11-02T07:55:16;99835.84;;;17.70;50.06
54329;BME280;40710;51.120;13.136;2022-11-02T07:57:41;99829.31;;;17.14;50.89
54329;BME280;40710;51.120;13.136;2022-11-02T08:00:07;99821.94;;;17.31;49.77
54329;BME280;40710;51.120;13.136;2022-11-02T08:02:32;99827.81;;;18.75;46.88
54329;BME280;40710;51.120;13.136;2022-11-02T08:04:56;99833.22;;;18.17;48.82
54329;BME280;40710;51.120;13.136;2022-11-02T08:07:21;99834.63;;;17.98;48.80
54329;BME280;40710;51.120;13.136;2022-11-02T08:09:46;99849.75;;;17.98;49.33
54329;BME280;40710;51.120;13.136;2022-11-02T08:12:10;99842.91;;;18.29;47.64
54329;BME280;40710;51.120;13.136;2022-11-02T08:14:37;99838.81;;;18.59;48.02
54329;BME280;40710;51.120;13.136;2022-11-02T08:17:02;99851.91;;;17.92;48.68
54329;BME280;40710;51.120;13.136;2022-11-02T08:19:27;99880.78;;;17.37;49.60
54329;BME280;40710;51.120;13.136;2022-11-02T08:21:51;99837.09;;;18.80;47.52
54329;BME280;40710;51.120;13.136;2022-11-02T08:24:16;99853.69;;;18.61;47.79
54329;BME280;40710;51.120;13.136;2022-11-02T08:26:41;99844.75;;;18.62;47.56
54329;BME280;40710;51.120;13.136;2022-11-02T08:29:06;99881.72;;;16.99;51.49
54329;BME280;40710;51.120;13.136;2022-11-02T08:31:30;99891.19;;;16.14;53.41
54329;BME280;40710;51.120;13.136;2022-11-02T08:33:56;99872.88;;;18.20;49.81
54329;BME280;40710;51.120;13.136;2022-11-02T08:36:21;99883.00;;;18.03;49.10
54329;BME280;40710;51.120;13.136;2022-11-02T08:39:11;99866.75;;;17.60;49.56
54329;BME280;40710;51.120;13.136;2022-11-02T08:41:36;99834.63;;;20.60;43.72
54329;BME280;40710;51.120;13.136;2022-11-02T08:44:00;99852.84;;;19.50;46.08
54329;BME280;40710;51.120;13.136;2022-11-02T08:46:25;99892.56;;;17.82;49.65
54329;BME280;40710;51.120;13.136;2022-11-02T08:48:49;99885.72;;;17.42;50.71
54329;BME280;40710;51.120;13.136;2022-11-02T08:51:14;99890.38;;;16.52;52.76
54329;BME280;40710;51.120;13.136;2022-11-02T08:53:39;99890.78;;;16.58;53.32
54329;BME280;40710;51.120;13.136;2022-11-02T08:56:04;99900.31;;;16.74;53.54
54329;BME280;40710;51.120;13.136;2022-11-02T08:58:28;99897.78;;;16.21;54.85
54329;BME280;40710;51.120;13.136;2022-11-02T09:00:53;99899.47;;;16.48;54.31
54329;BME280;40710;51.120;13.136;2022-11-02T09:03:18;99916.25;;;15.41;57.03
54329;BME280;40710;51.120;13.136;2022-11-02T09:05:46;99914.44;;;15.83;55.96
54329;BME280;40710;51.120;13.136;2022-11-02T09:08:13;99903.03;;;15.95;55.98
54329;BME280;40710;51.120;13.136;2022-11-02T09:10:39;99890.38;;;15.86;56.28
54329;BME280;40710;51.120;13.136;2022-11-02T09:13:05;99898.28;;;15.46;57.32
54329;BME280;40710;51.120;13.136;2022-11-02T09:15:33;99896.88;;;15.95;56.18
54329;BME280;40710;51.120;13.136;2022-11-02T09:17:58;99911.00;;;15.26;57.82
54329;BME280;40710;51.120;13.136;2022-11-02T09:20:22;99907.66;;;15.37;57.59
54329;BME280;40710;51.120;13.136;2022-11-02T09:22:47;99909.44;;;16.31;55.79
54329;BME280;40710;51.120;13.136;2022-11-02T09:25:14;99913.41;;;15.85;55.53
54329;BME280;40710;51.120;13.136;2022-11-02T09:27:40;99908.66;;;15.22;57.86
54329;BME280;40710;51.120;13.136;2022-11-02T09:30:05;99907.47;;;15.40;57.83
54329;BME280;40710;51.120;13.136;2022-11-02T09:32:30;99921.78;;;15.23;57.92
54329;BME280;40710;51.120;13.136;2022-11-02T09:34:57;99898.44;;;16.89;53.97
54329;BME280;40710;51.120;13.136;2022-11-02T09:37:21;99897.81;;;18.30;50.13
54329;BME280;40710;51.120;13.136;2022-11-02T09:39:47;99872.47;;;18.82;48.18
54329;BME280;40710;51.120;13.136;2022-11-02T09:42:23;99873.75;;;19.98;46.04
54329;BME280;40710;51.120;13.136;2022-11-02T09:45:04;99879.94;;;18.55;47.87
54329;BME280;40710;51.120;13.136;2022-11-02T09:47:42;99868.19;;;19.25;46.82
54329;BME280;40710;51.120;13.136;2022-11-02T09:50:15;99860.44;;;19.65;44.90
54329;BME280;40710;51.120;13.136;2022-11-02T09:52:44;99859.31;;;20.00;44.81
54329;BME280;40710;51.120;13.136;2022-11-02T09:55:16;99844.88;;;21.56;42.77
54329;BME280;40710;51.120;13.136;2022-11-02T09:57:46;99857.25;;;20.04;44.04
54329;BME280;40710;51.120;13.136;2022-11-02T10:00:14;99862.38;;;21.09;42.74
54329;BME280;40710;51.120;13.136;2022-11-02T10:05:41;99872.25;;;19.84;45.08
54329;BME280;40710;51.120;13.136;2022-11-02T10:08:31;99888.66;;;20.00;43.81
54329;BME280;40710;51.120;13.136;2022-11-02T10:13:35;99886.28;;;21.51;40.78
54329;BME280;40710;51.120;13.136;2022-11-02T10:16:18;99884.00;;;21.86;41.59
54329;BME280;40710;51.120;13.136;2022-11-02T10:18:43;99884.19;;;20.53;42.92
54329;BME280;40710;51.120;13.136;2022-11-02T10:21:20;99874.47;;;22.60;40.22
54329;BME280;40710;51.120;13.136;2022-11-02T10:23:52;99883.47;;;21.03;42.86
54329;BME280;40710;51.120;13.136;2022-11-02T10:26:31;99886.78;;;20.85;43.72
54329;BME280;40710;51.120;13.136;2022-11-02T10:29:17;99879.72;;;20.84;42.72
54329;BME280;40710;51.120;13.136;2022-11-02T10:31:44;99897.72;;;19.77;45.35
54329;BME280;40710;51.120;13.136;2022-11-02T10:34:22;99901.44;;;19.97;45.37
54329;BME280;40710;51.120;13.136;2022-11-02T10:36:54;99894.88;;;19.57;45.79
54329;BME280;40710;51.120;13.136;2022-11-02T10:39:28;99910.47;;;18.62;46.66
54329;BME280;40710;51.120;13.136;2022-11-02T10:42:10;99890.78;;;19.42;45.35
54329;BME280;40710;51.120;13.136;2022-11-02T10:44:51;99885.78;;;20.34;44.67
54329;BME280;40710;51.120;13.136;2022-11-02T10:47:29;99894.00;;;18.68;47.49
54329;BME280;40710;51.120;13.136;2022-11-02T10:50:18;99908.72;;;18.49;48.17
54329;BME280;40710;51.120;13.136;2022-11-02T10:52:51;99891.56;;;19.21;46.97
54329;BME280;40710;51.120;13.136;2022-11-02T10:55:24;99916.19;;;18.22;49.06
54329;BME280;40710;51.120;13.136;2022-11-02T10:57:54;99901.09;;;19.35;46.77
54329;BME280;40710;51.120;13.136;2022-11-02T11:00:31;99919.03;;;18.54;48.40
54329;BME280;40710;51.120;13.136;2022-11-02T11:05:38;99917.19;;;17.97;48.15
54329;BME280;40710;51.120;13.136;2022-11-02T11:10:50;99871.56;;;22.14;39.57
54329;BME280;40710;51.120;13.136;2022-11-02T11:13:22;99870.34;;;22.65;37.33
54329;BME280;40710;51.120;13.136;2022-11-02T11:15:50;99889.94;;;21.60;39.16
54329;BME280;40710;51.120;13.136;2022-11-02T11:18:19;99878.03;;;21.24;39.59
54329;BME280;40710;51.120;13.136;2022-11-02T11:20:46;99875.88;;;21.78;37.45
54329;BME280;40710;51.120;13.136;2022-11-02T11:23:18;99864.44;;;22.62;35.90
54329;BME280;40710;51.120;13.136;2022-11-02T11:26:05;99857.59;;;23.51;35.69
54329;BME280;40710;51.120;13.136;2022-11-02T11:28:52;99861.84;;;22.42;36.41
54329;BME280;40710;51.120;13.136;2022-11-02T11:31:18;99878.50;;;20.98;38.27
54329;BME280;40710;51.120;13.136;2022-11-02T11:33:49;99882.63;;;21.02;37.97
54329;BME280;40710;51.120;13.136;2022-11-02T11:38:49;99868.78;;;22.06;36.08
54329;BME280;40710;51.120;13.136;2022-11-02T11:41:16;99861.22;;;23.59;33.99
54329;BME280;40710;51.120;13.136;2022-11-02T11:43:43;99870.78;;;23.26;34.47
54329;BME280;40710;51.120;13.136;2022-11-02T11:46:12;99882.53;;;22.50;34.83
54329;BME280;40710;51.120;13.136;2022-11-02T11:48:44;99883.91;;;21.08;37.02
54329;BME280;40710;51.120;13.136;2022-11-02T11:51:34;99876.44;;;22.58;35.00
54329;BME280;40710;51.120;13.136;2022-11-02T11:54:24;99862.19;;;22.57;34.60
54329;BME280;40710;51.120;13.136;2022-11-02T11:56:53;99863.16;;;22.66;34.75
54329;BME280;40710;51.120;13.136;2022-11-02T11:59:21;99861.13;;;23.33;34.92
54329;BME280;40710;51.120;13.136;2022-11-02T12:01:46;99862.31;;;22.65;34.78
54329;BME280;40710;51.120;13.136;2022-11-02T12:04:11;99865.38;;;22.43;35.27
54329;BME280;40710;51.120;13.136;2022-11-02T12:07:07;99863.53;;;23.09;35.17
54329;BME280;40710;51.120;13.136;2022-11-02T12:12:46;99856.81;;;22.67;34.89
54329;BME280;40710;51.120;13.136;2022-11-02T12:23:26;99881.34;;;21.57;36.03
54329;BME280;40710;51.120;13.136;2022-11-02T12:26:14;99886.00;;;21.64;36.23
54329;BME280;40710;51.120;13.136;2022-11-02T12:31:32;99872.66;;;21.14;35.54
54329;BME280;40710;51.120;13.136;2022-11-02T12:37:56;99873.59;;;21.53;35.02
54329;BME280;40710;51.120;13.136;2022-11-02T12:40:44;99854.06;;;22.87;34.03
54329;BME280;40710;51.120;13.136;2022-11-02T12:46:02;99883.44;;;20.41;37.28
54329;BME280;40710;51.120;13.136;2022-11-02T12:48:41;99888.59;;;20.12;38.36
54329;BME280;40710;51.120;13.136;2022-11-02T12:51:17;99878.50;;;20.15;37.79
54329;BME280;40710;51.120;13.136;2022-11-02T12:53:55;99884.78;;;20.77;37.26
54329;BME280;40710;51.120;13.136;2022-11-02T12:56:28;99891.06;;;20.25;38.23
54329;BME280;40710;51.120;13.136;2022-11-02T12:58:55;99901.81;;;19.49;39.43
54329;BME280;40710;51.120;13.136;2022-11-02T13:01:29;99886.13;;;19.99;37.64
54329;BME280;40710;51.120;13.136;2022-11-02T13:04:28;99888.84;;;20.09;37.04
54329;BME280;40710;51.120;13.136;2022-11-02T13:07:04;99889.16;;;19.62;37.20
54329;BME280;40710;51.120;13.136;2022-11-02T13:09:37;99883.59;;;20.18;36.12
54329;BME280;40710;51.120;13.136;2022-11-02T13:12:09;99878.25;;;20.70;35.63
54329;BME280;40710;51.120;13.136;2022-11-02T13:14:41;99866.78;;;20.28;35.82
54329;BME280;40710;51.120;13.136;2022-11-02T13:19:59;99884.50;;;20.81;35.39
54329;BME280;40710;51.120;13.136;2022-11-02T13:22:32;99888.56;;;20.75;35.99
54329;BME280;40710;51.120;13.136;2022-11-02T13:25:25;99888.09;;;20.18;37.06
54329;BME280;40710;51.120;13.136;2022-11-02T13:28:07;99906.34;;;19.25;38.72
54329;BME280;40710;51.120;13.136;2022-11-02T13:30:34;99891.91;;;19.83;37.64
54329;BME280;40710;51.120;13.136;2022-11-02T13:33:07;99881.59;;;20.93;36.19
54329;BME280;40710;51.120;13.136;2022-11-02T13:35:39;99881.56;;;21.34;35.14
54329;BME280;40710;51.120;13.136;2022-11-02T13:41:30;99885.28;;;21.92;35.22
54329;BME280;40710;51.120;13.136;2022-11-02T13:47:00;99895.06;;;21.32;35.73
54329;BME280;40710;51.120;13.136;2022-11-02T13:49:42;99897.28;;;20.77;36.04
54329;BME280;40710;51.120;13.136;2022-11-02T13:52:14;99881.69;;;21.42;35.17
54329;BME280;40710;51.120;13.136;2022-11-02T13:54:47;99883.19;;;21.15;35.83
54329;BME280;40710;51.120;13.136;2022-11-02T13:57:39;99882.69;;;21.41;35.71
54329;BME280;40710;51.120;13.136;2022-11-02T14:00:28;99872.81;;;21.22;36.55
54329;BME280;40710;51.120;13.136;2022-11-02T14:03:15;99884.00;;;20.96;37.51